Time;durP1;ratioP1;P1;durP2;ratioP2;P2;SDS_P1;SDS_P2;PMS_P1;PMS_P2;Temp;Humidity;BMP_temperature;BMP_pressure;BME280_temperature;BME280_humidity;BME280_pressure;Samples;Min_cycle;Max_cycle;Signal;HPM_P1;HPM_P2
2022/11/22 00:01:29;;;;;;;14.87;12.37;;;-0.30;99.90;;;;;;5041977;28;20206;-55
2022/11/22 00:03:54;;;;;;;15.60;13.40;;;-0.30;99.90;;;;;;5042563;28;20204;-55
2022/11/22 00:06:20;;;;;;;17.33;12.27;;;-0.20;99.90;;;;;;5042861;28;20928;-56
2022/11/22 00:08:47;;;;;;;18.00;12.17;;;-0.10;99.90;;;;;;5042266;28;20216;-56
2022/11/22 00:11:12;;;;;;;15.43;11.30;;;-0.10;99.90;;;;;;5042711;28;20456;-57
2022/11/22 00:13:38;;;;;;;16.60;12.67;;;-0.10;99.90;;;;;;5040742;28;20241;-57
2022/11/22 00:16:03;;;;;;;16.50;11.87;;;-0.10;99.90;;;;;;5044895;28;20686;-56
2022/11/22 00:18:29;;;;;;;13.93;11.03;;;-0.10;99.90;;;;;;5039796;28;20952;-57
2022/11/22 00:20:55;;;;;;;15.57;11.90;;;-0.10;99.90;;;;;;5041659;28;20249;-57
2022/11/22 00:23:22;;;;;;;16.97;11.63;;;-0.10;99.90;;;;;;5042376;28;20194;-56
2022/11/22 00:25:47;;;;;;;16.40;12.23;;;-0.20;99.90;;;;;;5040240;28;20197;-57
2022/11/22 00:28:12;;;;;;;15.33;12.17;;;-0.20;99.90;;;;;;5041094;28;20219;-57
2022/11/22 00:30:38;;;;;;;15.73;12.70;;;-0.30;99.90;;;;;;5038562;28;20693;-57
2022/11/22 00:33:04;;;;;;;17.53;12.87;;;-0.40;99.90;;;;;;5038042;28;20216;-56
2022/11/22 00:35:29;;;;;;;13.60;10.13;;;-0.40;99.90;;;;;;5031229;28;20200;-56
2022/11/22 00:37:55;;;;;;;16.20;12.40;;;-0.50;99.90;;;;;;5029721;28;20572;-57
2022/11/22 00:40:21;;;;;;;17.93;14.13;;;-0.50;99.90;;;;;;5031753;28;20223;-58
2022/11/22 00:42:46;;;;;;;21.80;13.60;;;-0.60;99.90;;;;;;5025593;28;20215;-55
2022/11/22 00:45:12;;;;;;;15.10;12.33;;;-0.60;99.90;;;;;;5023787;28;20204;-56
2022/11/22 00:47:37;;;;;;;18.80;13.93;;;-0.70;99.90;;;;;;5028373;28;20204;-57
2022/11/22 00:50:04;;;;;;;17.93;13.17;;;-0.70;99.90;;;;;;5029680;28;20240;-57
2022/11/22 00:52:29;;;;;;;18.50;13.97;;;-0.80;99.90;;;;;;5029144;28;20201;-56
2022/11/22 00:54:54;;;;;;;19.73;12.43;;;-0.70;99.90;;;;;;5028083;28;20293;-56
2022/11/22 00:57:20;;;;;;;19.30;14.17;;;-0.70;99.90;;;;;;5028778;28;20315;-55
2022/11/22 00:59:45;;;;;;;19.83;14.33;;;-0.70;99.90;;;;;;5028506;28;20668;-56
2022/11/22 01:02:11;;;;;;;20.10;13.67;;;-0.70;99.90;;;;;;5028463;28;20189;-57
2022/11/22 01:04:36;;;;;;;15.00;13.13;;;-0.60;99.90;;;;;;5028626;28;20211;-54
2022/11/22 01:07:02;;;;;;;21.87;14.70;;;-0.60;99.90;;;;;;5036037;28;20232;-55
2022/11/22 01:09:27;;;;;;;20.97;14.33;;;-0.60;99.90;;;;;;5029159;28;20711;-56
2022/11/22 01:11:53;;;;;;;20.97;13.37;;;-0.60;99.90;;;;;;5038342;28;20292;-56
2022/11/22 01:14:18;;;;;;;20.13;12.80;;;-0.60;99.90;;;;;;5036913;28;20273;-55
2022/11/22 01:16:44;;;;;;;18.57;13.27;;;-0.70;99.90;;;;;;5033505;28;20583;-55
2022/11/22 01:19:09;;;;;;;18.47;14.20;;;-0.70;99.90;;;;;;5036674;28;20701;-56
2022/11/22 01:21:35;;;;;;;18.17;13.87;;;-0.70;99.90;;;;;;5029044;28;20295;-55
2022/11/22 01:24:01;;;;;;;21.30;13.37;;;-0.70;99.90;;;;;;5037173;28;20204;-56
2022/11/22 01:26:26;;;;;;;19.90;14.30;;;-0.70;99.90;;;;;;5037940;28;20211;-56
2022/11/22 01:28:52;;;;;;;19.00;13.87;;;-0.70;99.90;;;;;;5041108;28;20557;-56
2022/11/22 01:31:17;;;;;;;17.33;13.47;;;-0.70;99.90;;;;;;5033683;28;20283;-56
2022/11/22 01:33:43;;;;;;;17.23;12.83;;;-0.80;99.90;;;;;;5038058;28;20702;-56
2022/11/22 01:36:08;;;;;;;19.10;13.13;;;-0.80;99.90;;;;;;5037066;28;20295;-56
2022/11/22 01:38:34;;;;;;;17.37;14.27;;;-0.80;99.90;;;;;;5037974;28;20274;-56
2022/11/22 01:40:59;;;;;;;19.27;13.67;;;-0.90;99.90;;;;;;5037507;28;20882;-56
2022/11/22 01:43:27;;;;;;;18.67;13.63;;;-0.90;99.90;;;;;;5038278;28;20235;-56
2022/11/22 01:45:57;;;;;;;22.20;14.47;;;-0.90;99.90;;;;;;5038546;28;20420;-56
2022/11/22 01:48:26;;;;;;;17.37;12.83;;;-0.90;99.90;;;;;;5035699;28;20215;-56
2022/11/22 01:50:58;;;;;;;19.27;14.97;;;-0.90;99.90;;;;;;5037757;28;20201;-55
2022/11/22 01:53:37;;;;;;;20.77;14.73;;;-0.90;99.90;;;;;;5040696;28;20235;-56
2022/11/22 01:56:06;;;;;;;21.33;15.20;;;-1.00;99.90;;;;;;5032886;28;20195;-55
2022/11/22 01:58:34;;;;;;;21.03;15.17;;;-1.00;99.90;;;;;;5037232;28;20228;-55
2022/11/22 02:01:01;;;;;;;19.80;14.47;;;-0.90;99.90;;;;;;5037556;28;20670;-55
2022/11/22 02:03:28;;;;;;;17.50;14.17;;;-0.90;99.90;;;;;;5037887;28;20234;-55
2022/11/22 02:05:55;;;;;;;19.20;13.70;;;-0.90;99.90;;;;;;5035700;28;20253;-55
2022/11/22 02:08:53;;;;;;;22.53;13.17;;;-0.90;99.90;;;;;;5037236;28;20673;-56
2022/11/22 02:11:20;;;;;;;20.03;13.07;;;-0.90;99.90;;;;;;5037148;28;20269;-56
2022/11/22 02:13:46;;;;;;;20.17;14.33;;;-0.90;99.90;;;;;;5035091;28;20239;-56
2022/11/22 02:16:12;;;;;;;20.13;13.93;;;-0.90;99.90;;;;;;5037540;28;20204;-56
2022/11/22 02:18:38;;;;;;;20.23;14.30;;;-0.90;99.90;;;;;;5037523;28;20554;-55
2022/11/22 02:21:04;;;;;;;19.67;14.13;;;-0.90;99.90;;;;;;5030532;28;20198;-56
2022/11/22 02:23:55;;;;;;;15.07;12.10;;;-0.90;99.90;;;;;;5036467;28;20290;-56
2022/11/22 02:26:25;;;;;;;18.77;13.87;;;-0.90;99.90;;;;;;5037608;28;20294;-55
2022/11/22 02:28:52;;;;;;;23.67;14.23;;;-0.90;99.90;;;;;;5034963;28;20209;-56
2022/11/22 02:31:36;;;;;;;19.30;14.23;;;-0.90;99.90;;;;;;5033619;28;20215;-56
2022/11/22 02:34:02;;;;;;;19.30;14.40;;;-0.90;99.90;;;;;;5036737;28;20252;-56
2022/11/22 02:36:29;;;;;;;21.00;13.97;;;-0.90;99.90;;;;;;5037328;28;20200;-56
2022/11/22 02:38:54;;;;;;;19.17;13.87;;;-0.90;99.90;;;;;;5040468;28;20200;-57
2022/11/22 02:41:20;;;;;;;18.27;13.00;;;-0.80;99.90;;;;;;5032698;28;20211;-56
2022/11/22 02:43:46;;;;;;;19.37;14.37;;;-0.80;99.90;;;;;;5037023;28;20196;-56
2022/11/22 02:46:19;;;;;;;21.73;15.93;;;-0.80;99.90;;;;;;5036504;28;20203;-56
2022/11/22 02:48:45;;;;;;;24.70;15.80;;;-0.70;99.90;;;;;;5033477;28;20234;-55
2022/11/22 02:51:15;;;;;;;22.93;15.23;;;-0.70;99.90;;;;;;5036533;28;20246;-57
2022/11/22 02:53:48;;;;;;;20.27;14.23;;;-0.60;99.90;;;;;;5036275;28;20250;-57
2022/11/22 02:56:14;;;;;;;20.60;14.33;;;-0.60;99.90;;;;;;5036766;28;20199;-57
2022/11/22 02:58:39;;;;;;;20.53;14.30;;;-0.60;99.90;;;;;;5034992;28;20234;-57
2022/11/22 03:01:05;;;;;;;19.73;14.60;;;-0.60;99.90;;;;;;5036055;28;20205;-57
2022/11/22 03:03:32;;;;;;;22.43;15.90;;;-0.60;99.90;;;;;;5038953;28;20212;-56
2022/11/22 03:05:57;;;;;;;21.77;14.10;;;-0.50;99.90;;;;;;5033225;28;20208;-56
2022/11/22 03:08:23;;;;;;;20.47;14.97;;;-0.50;99.90;;;;;;5035403;28;20936;-56
2022/11/22 03:10:48;;;;;;;19.93;14.33;;;-0.60;99.90;;;;;;5036493;28;20558;-55
2022/11/22 03:13:14;;;;;;;18.83;15.63;;;-0.60;99.90;;;;;;5034693;28;20293;-56
2022/11/22 03:15:39;;;;;;;26.43;15.17;;;-0.70;99.90;;;;;;5036218;28;20210;-55
2022/11/22 03:18:05;;;;;;;20.90;15.43;;;-0.70;99.90;;;;;;5038793;28;20198;-55
2022/11/22 03:20:32;;;;;;;22.97;14.17;;;-0.70;99.90;;;;;;5033028;28;20213;-55
2022/11/22 03:22:59;;;;;;;21.30;16.67;;;-0.70;99.90;;;;;;5035415;28;20281;-56
2022/11/22 03:25:25;;;;;;;20.77;14.43;;;-0.70;99.90;;;;;;5039659;28;20199;-56
2022/11/22 03:27:51;;;;;;;17.40;13.90;;;-0.70;99.90;;;;;;5032416;28;20203;-55
2022/11/22 03:30:16;;;;;;;18.10;13.93;;;-0.70;99.90;;;;;;5035116;28;20576;-55
2022/11/22 03:32:42;;;;;;;23.10;15.77;;;-0.80;99.90;;;;;;5032769;28;20211;-56
2022/11/22 03:35:08;;;;;;;21.00;16.33;;;-0.80;99.90;;;;;;5036981;28;20297;-55
2022/11/22 03:37:33;;;;;;;21.37;14.77;;;-0.80;99.90;;;;;;5034774;28;20669;-55
2022/11/22 03:39:59;;;;;;;20.53;15.60;;;-0.70;99.90;;;;;;5034855;28;20456;-55
2022/11/22 03:42:24;;;;;;;20.90;15.20;;;-0.70;99.90;;;;;;5036164;28;20286;-55
2022/11/22 03:44:50;;;;;;;25.20;15.37;;;-0.80;99.90;;;;;;5035972;28;20198;-56
2022/11/22 03:47:15;;;;;;;21.43;15.43;;;-0.80;99.90;;;;;;5035877;28;20199;-56
2022/11/22 03:49:41;;;;;;;19.30;14.80;;;-0.80;99.90;;;;;;5035348;28;20205;-56
2022/11/22 03:52:07;;;;;;;21.43;16.40;;;-0.80;99.90;;;;;;5032235;28;20207;-56
2022/11/22 03:54:32;;;;;;;21.93;15.47;;;-0.80;99.90;;;;;;5036034;28;20234;-56
2022/11/22 03:56:58;;;;;;;25.20;16.40;;;-0.80;99.90;;;;;;5035786;28;20246;-56
2022/11/22 03:59:23;;;;;;;20.93;16.23;;;-0.80;99.90;;;;;;5035719;28;20678;-56
2022/11/22 04:01:49;;;;;;;22.87;16.73;;;-0.80;99.90;;;;;;5035290;28;20196;-56
2022/11/22 04:04:14;;;;;;;21.40;15.60;;;-0.90;99.90;;;;;;5036016;28;20478;-56
2022/11/22 04:06:40;;;;;;;23.80;16.07;;;-0.90;99.90;;;;;;5040681;28;20280;-56
2022/11/22 04:09:05;;;;;;;24.17;16.13;;;-0.80;99.90;;;;;;5039133;28;20563;-56
2022/11/22 04:11:31;;;;;;;22.90;14.63;;;-0.80;99.90;;;;;;5039174;28;20334;-56
2022/11/22 04:16:41;;;;;;;22.40;16.33;;;-0.70;99.90;;;;;;5036985;28;21045;-57
2022/11/22 04:19:06;;;;;;;22.90;16.30;;;-0.70;99.90;;;;;;5039709;28;20203;-56
2022/11/22 04:21:35;;;;;;;21.87;16.13;;;-0.70;99.90;;;;;;5039220;28;20629;-56
2022/11/22 04:26:53;;;;;;;24.13;16.33;;;-0.70;99.90;;;;;;5041271;28;20229;-56
2022/11/22 04:29:19;;;;;;;21.63;16.30;;;-0.60;99.90;;;;;;5035056;28;20235;-56
2022/11/22 04:34:30;;;;;;;26.33;17.30;;;-0.60;99.90;;;;;;5037503;28;20240;-56
2022/11/22 04:36:55;;;;;;;24.60;17.37;;;-0.50;99.90;;;;;;5038950;28;20271;-56
2022/11/22 04:39:21;;;;;;;25.23;16.90;;;-0.40;99.90;;;;;;5036370;28;20560;-56
2022/11/22 04:41:46;;;;;;;22.33;15.73;;;-0.40;99.90;;;;;;5038512;28;20526;-56
2022/11/22 04:46:56;;;;;;;25.93;15.40;;;-0.40;99.90;;;;;;5038627;28;20211;-56
2022/11/22 04:49:21;;;;;;;23.43;16.97;;;-0.40;99.90;;;;;;5037784;28;20202;-55
2022/11/22 04:54:31;;;;;;;23.47;16.80;;;-0.40;99.90;;;;;;5035362;28;20259;-57
2022/11/22 04:56:57;;;;;;;26.03;17.00;;;-0.40;99.90;;;;;;5038100;28;20722;-57
2022/11/22 04:59:22;;;;;;;28.60;18.40;;;-0.40;99.90;;;;;;5038340;28;20626;-56
2022/11/22 05:01:48;;;;;;;24.73;16.50;;;-0.40;99.90;;;;;;5042576;28;20253;-56
2022/11/22 05:04:13;;;;;;;25.77;18.07;;;-0.40;99.90;;;;;;5036142;28;20643;-56
2022/11/22 05:06:39;;;;;;;29.27;18.50;;;-0.40;99.90;;;;;;5034489;28;20195;-56
2022/11/22 05:09:04;;;;;;;33.63;18.50;;;-0.40;99.90;;;;;;5037820;28;20205;-56
2022/11/22 05:11:29;;;;;;;30.17;18.67;;;-0.30;99.90;;;;;;5038077;28;20216;-55
2022/11/22 05:13:55;;;;;;;26.53;17.40;;;-0.30;99.90;;;;;;5038241;28;20220;-56
2022/11/22 05:16:21;;;;;;;29.30;20.23;;;-0.30;99.90;;;;;;5035536;28;20192;-55
2022/11/22 05:18:57;;;;;;;32.70;20.93;;;-0.30;99.90;;;;;;5037763;28;20252;-55
2022/11/22 05:21:25;;;;;;;25.27;18.20;;;-0.30;99.90;;;;;;5037832;28;20205;-55
2022/11/22 05:23:54;;;;;;;29.57;17.77;;;-0.20;99.90;;;;;;5037785;28;20206;-56
2022/11/22 05:26:24;;;;;;;33.50;19.00;;;-0.30;99.90;;;;;;5037851;28;20234;-55
2022/11/22 05:28:51;;;;;;;27.13;17.80;;;-0.30;99.90;;;;;;5037981;28;20211;-55
2022/11/22 05:31:22;;;;;;;29.47;19.90;;;-0.30;99.90;;;;;;5037448;28;20208;-56
2022/11/22 05:33:49;;;;;;;33.73;19.67;;;-0.30;99.90;;;;;;5037829;28;20317;-56
2022/11/22 05:36:15;;;;;;;32.00;18.40;;;-0.30;99.90;;;;;;5039064;28;20210;-56
2022/11/22 05:38:41;;;;;;;29.07;18.53;;;-0.30;99.90;;;;;;5036014;28;21152;-56
2022/11/22 05:41:08;;;;;;;33.33;20.40;;;-0.30;99.90;;;;;;5038388;28;20192;-56
2022/11/22 05:43:35;;;;;;;33.20;19.47;;;-0.30;99.90;;;;;;5031306;28;20227;-56
2022/11/22 05:46:16;;;;;;;32.90;19.03;;;-0.30;99.90;;;;;;5023160;28;20697;-56
2022/11/22 05:48:44;;;;;;;27.27;17.70;;;-0.20;99.90;;;;;;5027142;28;20690;-56
2022/11/22 05:51:14;;;;;;;29.03;19.07;;;-0.20;99.90;;;;;;5024967;28;20337;-57
2022/11/22 05:53:41;;;;;;;27.97;18.70;;;-0.10;99.90;;;;;;5029318;28;20212;-57
2022/11/22 05:56:12;;;;;;;28.37;17.83;;;-0.10;99.90;;;;;;5027110;28;20218;-57
2022/11/22 05:58:39;;;;;;;25.37;17.70;;;-0.10;99.90;;;;;;5027832;28;20256;-56
2022/11/22 06:01:11;;;;;;;30.20;18.90;;;-0.10;99.90;;;;;;5022647;28;20197;-56
2022/11/22 06:03:37;;;;;;;30.07;18.30;;;-0.10;99.90;;;;;;5026537;28;20534;-56
2022/11/22 06:06:04;;;;;;;28.23;18.73;;;-0.10;99.90;;;;;;5027840;28;20208;-55
2022/11/22 06:08:31;;;;;;;30.73;19.27;;;-0.10;99.90;;;;;;5028425;28;20203;-55
2022/11/22 06:11:09;;;;;;;31.43;17.43;;;-0.20;99.90;;;;;;5025394;28;20214;-55
2022/11/22 06:13:36;;;;;;;26.67;18.47;;;-0.10;99.90;;;;;;5026664;28;20691;-55
2022/11/22 06:16:03;;;;;;;30.13;18.00;;;-0.10;99.90;;;;;;5030174;28;20260;-55
2022/11/22 06:18:28;;;;;;;30.07;17.73;;;-0.10;99.90;;;;;;5032213;28;20238;-55
2022/11/22 06:21:02;;;;;;;29.47;17.53;;;0.00;99.90;;;;;;5027127;28;20231;-56
2022/11/22 06:23:28;;;;;;;26.73;19.00;;;0.00;99.90;;;;;;5028061;28;21013;-56
2022/11/22 06:25:59;;;;;;;33.03;18.27;;;0.00;99.90;;;;;;5026870;28;20732;-56
2022/11/22 06:28:25;;;;;;;30.60;19.67;;;0.00;99.90;;;;;;5021078;28;20204;-56
2022/11/22 06:30:51;;;;;;;28.93;17.87;;;0.00;99.90;;;;;;5026590;28;20215;-57
2022/11/22 06:33:16;;;;;;;32.83;19.80;;;0.10;99.90;;;;;;5026252;28;20217;-57
2022/11/22 06:35:42;;;;;;;28.67;18.77;;;0.00;99.90;;;;;;5038130;28;20669;-57
2022/11/22 06:38:07;;;;;;;27.50;19.03;;;0.10;99.90;;;;;;5024899;28;20215;-58
2022/11/22 06:40:32;;;;;;;25.50;17.30;;;0.10;99.90;;;;;;5023283;28;20255;-57
2022/11/22 06:42:58;;;;;;;31.03;19.17;;;0.10;99.90;;;;;;5027107;28;20200;-58
2022/11/22 06:45:23;;;;;;;27.90;17.43;;;0.10;99.90;;;;;;5029386;28;20660;-57
2022/11/22 06:47:49;;;;;;;29.87;18.17;;;0.10;99.90;;;;;;5034779;28;20269;-58
2022/11/22 06:50:14;;;;;;;28.77;18.30;;;0.10;99.90;;;;;;5036093;28;20211;-55
2022/11/22 06:52:40;;;;;;;30.27;19.37;;;0.10;99.90;;;;;;5033943;28;20333;-56
2022/11/22 06:55:06;;;;;;;30.43;18.73;;;0.20;99.90;;;;;;5036153;28;20676;-55
2022/11/22 06:57:31;;;;;;;31.83;19.10;;;0.20;99.90;;;;;;5036245;28;20657;-57
2022/11/22 06:59:57;;;;;;;27.83;18.00;;;0.20;99.90;;;;;;5036706;28;20197;-55
2022/11/22 07:02:22;;;;;;;27.67;17.30;;;0.20;99.90;;;;;;5036339;28;20203;-55
2022/11/22 07:04:48;;;;;;;28.30;17.73;;;0.10;99.90;;;;;;5036168;28;20204;-56
2022/11/22 07:07:13;;;;;;;30.23;18.87;;;0.20;99.90;;;;;;5034211;28;20232;-55
2022/11/22 07:09:38;;;;;;;27.63;18.50;;;0.30;99.90;;;;;;5036091;28;20863;-55
2022/11/22 07:12:04;;;;;;;28.63;18.03;;;0.20;99.90;;;;;;5037393;28;20211;-55
2022/11/22 07:14:30;;;;;;;30.83;17.93;;;0.30;99.90;;;;;;5033345;28;20223;-55
2022/11/22 07:16:55;;;;;;;26.73;17.20;;;0.30;99.90;;;;;;5037012;28;20197;-57
2022/11/22 07:19:21;;;;;;;25.73;17.60;;;0.30;99.90;;;;;;5033330;28;20200;-55
2022/11/22 07:21:48;;;;;;;27.63;17.87;;;0.30;99.90;;;;;;5036095;28;20277;-56
2022/11/22 07:24:13;;;;;;;26.27;17.60;;;0.40;99.90;;;;;;5035910;28;20216;-55
2022/11/22 07:26:39;;;;;;;27.67;17.87;;;0.30;99.90;;;;;;5035883;28;20192;-55
2022/11/22 07:29:04;;;;;;;28.83;17.70;;;0.40;99.90;;;;;;5035830;28;20209;-57
2022/11/22 07:31:30;;;;;;;27.93;18.07;;;0.40;99.90;;;;;;5034462;28;20208;-57
2022/11/22 07:33:58;;;;;;;30.83;18.77;;;0.40;99.90;;;;;;5035961;28;20287;-55
2022/11/22 07:36:27;;;;;;;28.37;16.40;;;0.40;99.90;;;;;;5036130;28;20305;-55
2022/11/22 07:38:52;;;;;;;22.80;16.40;;;0.40;99.90;;;;;;5034298;28;20221;-56
2022/11/22 07:41:18;;;;;;;22.47;14.77;;;0.40;99.90;;;;;;5040501;28;20198;-56
2022/11/22 07:43:45;;;;;;;26.13;17.93;;;0.50;99.90;;;;;;5037862;28;20207;-55
2022/11/22 07:46:22;;;;;;;24.97;16.97;;;0.50;99.90;;;;;;5040608;28;20216;-61
2022/11/22 07:48:48;;;;;;;27.90;17.73;;;0.60;99.90;;;;;;5041087;28;20205;-55
2022/11/22 07:51:14;;;;;;;22.67;16.80;;;0.60;99.90;;;;;;5032377;28;20211;-58
2022/11/22 07:53:39;;;;;;;25.50;17.43;;;0.60;99.90;;;;;;5038976;28;20254;-56
2022/11/22 07:56:06;;;;;;;29.70;18.80;;;0.60;99.90;;;;;;5035102;28;20304;-56
2022/11/22 07:58:32;;;;;;;26.03;17.60;;;0.60;99.90;;;;;;5027885;28;20527;-54
2022/11/22 08:01:04;;;;;;;28.90;17.83;;;0.70;99.90;;;;;;5027113;28;20238;-57
2022/11/22 08:03:29;;;;;;;27.87;18.07;;;0.70;99.90;;;;;;5034924;28;20204;-58
2022/11/22 08:05:59;;;;;;;25.83;18.20;;;0.80;99.90;;;;;;5038932;28;20204;-56
2022/11/22 08:08:25;;;;;;;26.70;17.93;;;0.90;99.90;;;;;;5040617;28;20770;-56
2022/11/22 08:10:50;;;;;;;30.20;18.27;;;1.00;99.90;;;;;;5039391;28;20980;-54
2022/11/22 08:13:15;;;;;;;30.80;19.43;;;1.00;99.90;;;;;;5031636;28;20690;-54
2022/11/22 08:15:41;;;;;;;27.60;17.97;;;1.00;99.90;;;;;;5026231;28;20216;-55
2022/11/22 08:18:06;;;;;;;30.70;17.90;;;1.00;99.90;;;;;;5034966;28;20205;-54
2022/11/22 08:20:32;;;;;;;27.80;17.80;;;1.10;99.90;;;;;;5038671;28;20195;-55
2022/11/22 08:22:57;;;;;;;29.40;18.53;;;1.00;99.90;;;;;;5035807;28;20204;-55
2022/11/22 08:25:23;;;;;;;28.37;17.80;;;1.10;99.90;;;;;;5040554;28;20568;-55
2022/11/22 08:27:48;;;;;;;24.60;18.20;;;1.10;99.90;;;;;;5037651;28;20209;-54
2022/11/22 08:30:14;;;;;;;27.93;16.50;;;1.10;99.90;;;;;;5038299;28;20206;-55
2022/11/22 08:32:40;;;;;;;29.57;18.67;;;1.10;99.90;;;;;;5037525;28;20288;-56
2022/11/22 08:35:05;;;;;;;26.80;16.33;;;1.10;99.90;;;;;;5038347;28;20595;-56
2022/11/22 08:37:31;;;;;;;33.50;17.23;;;1.20;99.90;;;;;;5040669;28;20298;-56
2022/11/22 08:39:56;;;;;;;29.43;17.50;;;1.20;99.90;;;;;;5036794;28;20260;-55
2022/11/22 08:42:22;;;;;;;26.70;18.20;;;1.20;99.90;;;;;;5038085;28;20196;-55
2022/11/22 08:44:47;;;;;;;27.07;18.50;;;1.20;99.90;;;;;;5042489;28;20294;-55
2022/11/22 08:47:13;;;;;;;31.20;18.57;;;1.20;99.90;;;;;;5031989;28;20193;-55
2022/11/22 08:49:38;;;;;;;30.70;18.90;;;1.20;99.90;;;;;;5038384;28;20231;-55
2022/11/22 08:52:04;;;;;;;27.87;18.90;;;1.10;99.90;;;;;;5037229;28;20564;-55
2022/11/22 08:54:29;;;;;;;33.40;19.33;;;1.10;99.90;;;;;;5041926;28;20239;-57
2022/11/22 08:56:55;;;;;;;28.27;18.47;;;1.10;99.90;;;;;;5027104;28;20272;-56
2022/11/22 08:59:20;;;;;;;33.93;20.60;;;1.10;99.90;;;;;;5027610;28;20594;-56
2022/11/22 09:01:46;;;;;;;31.63;19.37;;;1.10;99.90;;;;;;5031525;28;20219;-56
2022/11/22 09:04:11;;;;;;;25.70;17.83;;;1.20;99.90;;;;;;5037266;28;20695;-70
2022/11/22 09:06:38;;;;;;;36.67;20.23;;;1.40;99.90;;;;;;5038892;28;20246;-75
2022/11/22 09:09:04;;;;;;;28.23;18.97;;;1.50;99.90;;;;;;5033860;28;20219;-55
2022/11/22 09:11:29;;;;;;;32.70;21.23;;;1.50;99.90;;;;;;5040246;28;20234;-54
2022/11/22 09:13:55;;;;;;;31.67;20.70;;;1.60;99.90;;;;;;5032616;28;20218;-53
2022/11/22 09:16:20;;;;;;;30.00;17.97;;;1.60;99.90;;;;;;5037948;28;20683;-54
2022/11/22 09:18:47;;;;;;;30.70;19.03;;;1.70;99.90;;;;;;5038156;28;20249;-55
2022/11/22 09:21:14;;;;;;;32.90;20.47;;;1.80;99.90;;;;;;5035614;28;20739;-54
2022/11/22 09:23:44;;;;;;;33.80;21.87;;;1.80;99.90;;;;;;5037214;28;20200;-54
2022/11/22 09:26:15;;;;;;;33.80;20.03;;;1.80;99.90;;;;;;5033531;28;20684;-53
2022/11/22 09:28:41;;;;;;;33.33;21.50;;;1.70;99.90;;;;;;5037759;28;20298;-53
2022/11/22 09:31:09;;;;;;;33.43;20.30;;;1.80;99.90;;;;;;5036046;28;20283;-53
2022/11/22 09:33:37;;;;;;;30.97;18.33;;;1.90;99.90;;;;;;5037734;28;20230;-53
2022/11/22 09:36:10;;;;;;;34.00;19.70;;;2.20;99.90;;;;;;5035623;28;20196;-53
2022/11/22 09:38:36;;;;;;;28.13;19.30;;;2.20;99.90;;;;;;5036430;28;20200;-54
2022/11/22 09:41:10;;;;;;;36.23;19.03;;;2.20;99.90;;;;;;5037751;28;20201;-53
2022/11/22 09:43:51;;;;;;;34.13;20.43;;;2.10;99.90;;;;;;5026532;28;20225;-54
2022/11/22 09:46:36;;;;;;;34.47;21.10;;;2.10;99.90;;;;;;5027420;28;20208;-52
2022/11/22 09:49:09;;;;;;;30.57;19.93;;;2.20;99.90;;;;;;5024508;28;20206;-53
2022/11/22 09:51:50;;;;;;;34.40;21.50;;;2.20;99.90;;;;;;5028561;28;20215;-55
2022/11/22 09:54:22;;;;;;;35.90;20.43;;;2.20;99.90;;;;;;5037299;28;20294;-54
2022/11/22 09:56:53;;;;;;;32.63;18.40;;;2.20;99.90;;;;;;5037571;28;20205;-55
2022/11/22 09:59:28;;;;;;;30.47;20.70;;;2.30;99.90;;;;;;5037667;28;20255;-54
2022/11/22 10:02:28;;;;;;;34.57;20.97;;;2.30;99.90;;;;;;5035559;28;20203;-55
2022/11/22 10:04:56;;;;;;;33.20;20.23;;;2.40;99.90;;;;;;5033474;28;21014;-54
2022/11/22 10:07:44;;;;;;;35.87;20.90;;;2.40;99.90;;;;;;5037577;28;20208;-53
2022/11/22 10:10:34;;;;;;;33.47;20.37;;;2.40;99.90;;;;;;5034752;28;20205;-52
2022/11/22 10:13:05;;;;;;;33.50;21.33;;;2.30;99.90;;;;;;5031429;28;20237;-53
2022/11/22 10:15:48;;;;;;;29.67;18.20;;;2.20;99.90;;;;;;5036797;28;20212;-53
2022/11/22 10:18:24;;;;;;;32.67;21.07;;;2.20;99.90;;;;;;5035410;28;20204;-54
2022/11/22 10:20:49;;;;;;;27.27;16.53;;;2.10;99.90;;;;;;5038139;28;20207;-57
2022/11/22 10:23:19;;;;;;;33.40;19.97;;;2.20;99.90;;;;;;5037331;28;20291;-55
2022/11/22 10:26:10;;;;;;;33.63;19.77;;;2.30;99.90;;;;;;5037337;28;20196;-58
2022/11/22 10:28:46;;;;;;;36.77;21.20;;;2.40;99.90;;;;;;5029649;28;20311;-57
2022/11/22 10:31:19;;;;;;;33.27;20.70;;;2.40;99.90;;;;;;5030301;28;20485;-56
2022/11/22 10:34:22;;;;;;;35.17;21.57;;;2.50;99.90;;;;;;5028490;28;20220;-56
2022/11/22 10:37:06;;;;;;;31.97;18.77;;;2.60;99.90;;;;;;5028976;28;20228;-56
2022/11/22 10:39:58;;;;;;;32.83;20.80;;;2.70;99.90;;;;;;5027535;28;20261;-55
2022/11/22 10:42:57;;;;;;;32.07;20.27;;;2.70;99.90;;;;;;5029283;28;20203;-55
2022/11/22 10:45:59;;;;;;;32.43;20.20;;;2.80;99.90;;;;;;5030575;28;20205;-55
2022/11/22 10:48:45;;;;;;;27.17;18.53;;;2.70;99.90;;;;;;5023523;28;20236;-55
2022/11/22 10:51:34;;;;;;;36.83;21.37;;;2.70;99.90;;;;;;5025129;28;20679;-58
2022/11/22 10:54:15;;;;;;;28.37;16.83;;;2.50;99.90;;;;;;5035180;28;20299;-55
2022/11/22 10:56:59;;;;;;;35.77;21.57;;;2.50;99.90;;;;;;5037225;28;20733;-55
2022/11/22 10:59:52;;;;;;;35.20;21.40;;;2.40;99.90;;;;;;5030407;28;20322;-55
2022/11/22 11:02:24;;;;;;;28.50;16.70;;;2.40;99.90;;;;;;5036288;28;20242;-55
2022/11/22 11:04:51;;;;;;;33.93;21.67;;;2.30;99.90;;;;;;5035866;28;20201;-55
2022/11/22 11:07:20;;;;;;;27.67;16.50;;;2.30;99.90;;;;;;5038573;28;20211;-57
2022/11/22 11:10:04;;;;;;;33.57;20.77;;;2.40;99.90;;;;;;5038922;28;20682;-59
2022/11/22 11:12:40;;;;;;;21.20;14.13;;;2.50;99.90;;;;;;5033518;28;20630;-57
2022/11/22 11:15:34;;;;;;;40.60;22.60;;;2.50;99.90;;;;;;5031707;28;20255;-55
2022/11/22 11:18:15;;;;;;;37.27;21.07;;;2.50;99.90;;;;;;5019485;28;20288;-54
2022/11/22 11:20:42;;;;;;;41.67;21.67;;;2.50;99.90;;;;;;5029980;28;20201;-55
2022/11/22 11:23:11;;;;;;;33.83;20.57;;;2.60;99.90;;;;;;5028149;28;20560;-56
2022/11/22 11:25:39;;;;;;;31.07;19.10;;;2.70;99.90;;;;;;5027070;28;20572;-55
2022/11/22 11:28:20;;;;;;;34.13;20.40;;;2.80;99.90;;;;;;5031471;28;20206;-55
2022/11/22 11:30:48;;;;;;;36.77;23.00;;;2.80;99.90;;;;;;5033953;28;20210;-57
2022/11/22 11:33:26;;;;;;;31.77;18.50;;;2.90;99.90;;;;;;5034209;28;21152;-57
2022/11/22 11:35:54;;;;;;;34.80;21.03;;;2.90;99.90;;;;;;5026070;28;20212;-55
2022/11/22 11:38:47;;;;;;;33.50;19.83;;;3.00;99.90;;;;;;5026233;28;20288;-55
2022/11/22 11:41:30;;;;;;;36.37;20.03;;;3.00;99.90;;;;;;5023493;28;20197;-57
2022/11/22 11:44:00;;;;;;;36.13;20.87;;;3.00;99.90;;;;;;5029886;28;20206;-55
2022/11/22 11:46:28;;;;;;;33.67;19.63;;;2.90;99.90;;;;;;5030223;28;20196;-55
2022/11/22 11:49:07;;;;;;;35.23;21.60;;;2.90;99.90;;;;;;5035550;28;20200;-62
2022/11/22 11:51:42;;;;;;;31.93;19.37;;;2.80;99.90;;;;;;5035423;28;20859;-57
2022/11/22 11:54:19;;;;;;;30.27;18.83;;;2.90;99.90;;;;;;5039665;28;20277;-57
2022/11/22 11:56:51;;;;;;;34.20;19.83;;;3.00;99.90;;;;;;5036487;28;20187;-56
2022/11/22 11:59:30;;;;;;;32.17;19.80;;;3.00;99.90;;;;;;5024876;28;20372;-55
2022/11/22 12:02:10;;;;;;;24.00;14.80;;;3.00;99.90;;;;;;5030344;28;20228;-54
2022/11/22 12:04:48;;;;;;;34.87;20.03;;;3.00;99.90;;;;;;5025450;28;20733;-55
2022/11/22 12:07:26;;;;;;;33.10;20.13;;;3.00;99.90;;;;;;5025406;28;20849;-57
2022/11/22 12:09:54;;;;;;;29.93;19.43;;;2.90;99.90;;;;;;5026314;28;20309;-56
2022/11/22 12:12:28;;;;;;;35.53;21.10;;;3.00;99.90;;;;;;5024906;28;20265;-55
2022/11/22 12:15:06;;;;;;;34.23;20.10;;;3.10;99.90;;;;;;5023575;28;20709;-54
2022/11/22 12:17:37;;;;;;;27.43;17.47;;;3.10;99.90;;;;;;5027614;28;20214;-54
2022/11/22 12:20:08;;;;;;;29.77;19.67;;;3.10;99.90;;;;;;5032800;28;20207;-57
2022/11/22 12:23:01;;;;;;;31.07;18.57;;;3.10;99.90;;;;;;5026969;28;20212;-55
2022/11/22 12:25:38;;;;;;;30.10;20.23;;;3.10;99.90;;;;;;5034068;28;20205;-55
2022/11/22 12:28:22;;;;;;;28.00;18.60;;;3.00;99.90;;;;;;5039776;28;20213;-56
2022/11/22 12:31:18;;;;;;;31.60;19.97;;;3.00;99.90;;;;;;5037792;28;20692;-56
2022/11/22 12:33:48;;;;;;;30.83;20.47;;;3.10;99.90;;;;;;5039725;28;20221;-56
2022/11/22 12:36:19;;;;;;;32.63;20.83;;;3.10;99.90;;;;;;5039321;28;20209;-58
2022/11/22 12:38:48;;;;;;;31.27;18.50;;;3.10;99.90;;;;;;5039523;28;20226;-56
2022/11/22 12:41:16;;;;;;;32.30;19.93;;;3.20;99.90;;;;;;5038925;28;20525;-56
2022/11/22 12:43:55;;;;;;;32.47;19.03;;;3.20;99.90;;;;;;5039307;28;20233;-57
2022/11/22 12:46:26;;;;;;;28.03;19.27;;;3.20;99.90;;;;;;5039084;28;20300;-57
2022/11/22 12:49:20;;;;;;;29.00;18.23;;;3.20;99.90;;;;;;5039489;28;20291;-57
2022/11/22 12:51:52;;;;;;;29.13;16.60;;;3.20;99.90;;;;;;5036056;28;20232;-56
2022/11/22 12:54:36;;;;;;;34.03;19.87;;;3.20;99.90;;;;;;5039029;28;20293;-57
2022/11/22 12:57:19;;;;;;;32.67;19.93;;;3.10;99.90;;;;;;5038631;28;20239;-57
2022/11/22 13:00:05;;;;;;;31.67;19.33;;;3.20;99.90;;;;;;5034679;28;20278;-57